Time;durP1;ratioP1;P1;durP2;ratioP2;P2;SDS_P1;SDS_P2;PMS_P1;PMS_P2;Temp;Humidity;BMP_temperature;BMP_pressure;BME280_temperature;BME280_humidity;BME280_pressure;Samples;Min_cycle;Max_cycle;Signal;HPM_P1;HPM_P2
2021/03/23 00:01:04;;;;;;;31.53;13.40;;;4.30;99.90;;;;;;4917523;29;20568;-60
2021/03/23 00:03:36;;;;;;;34.17;13.73;;;4.20;99.90;;;;;;4923012;29;20248;-60
2021/03/23 00:06:05;;;;;;;32.20;13.40;;;4.20;99.90;;;;;;4918892;29;20193;-60
2021/03/23 00:08:36;;;;;;;37.27;14.10;;;4.30;99.90;;;;;;4910981;29;20305;-60
2021/03/23 00:11:07;;;;;;;30.00;13.93;;;4.30;99.90;;;;;;4921207;29;20199;-60
2021/03/23 00:13:37;;;;;;;30.70;13.57;;;4.40;99.90;;;;;;4911005;29;20253;-60
2021/03/23 00:16:07;;;;;;;30.53;13.77;;;4.40;99.90;;;;;;4905800;29;20660;-60
2021/03/23 00:18:35;;;;;;;30.17;13.37;;;4.50;99.90;;;;;;4910534;29;20204;-60
2021/03/23 00:21:03;;;;;;;33.20;13.70;;;4.60;99.90;;;;;;4912052;29;20561;-60
2021/03/23 00:23:31;;;;;;;24.50;13.00;;;4.70;99.90;;;;;;4913290;29;20634;-60
2021/03/23 00:25:59;;;;;;;32.67;13.43;;;4.70;99.90;;;;;;4908193;29;20232;-60
2021/03/23 00:28:27;;;;;;;32.57;14.03;;;4.70;99.90;;;;;;4911082;29;20840;-60
2021/03/23 00:30:55;;;;;;;30.50;14.40;;;4.70;99.90;;;;;;4910762;29;20194;-60
2021/03/23 00:33:24;;;;;;;31.97;14.50;;;4.80;99.90;;;;;;4917490;29;20549;-59
2021/03/23 00:35:55;;;;;;;31.63;14.47;;;4.80;99.90;;;;;;4912460;29;20593;-60
2021/03/23 00:38:22;;;;;;;31.30;14.23;;;4.80;99.90;;;;;;4915634;29;20568;-60
2021/03/23 00:40:51;;;;;;;29.87;13.80;;;4.90;99.90;;;;;;4910151;29;20284;-60
2021/03/23 00:43:20;;;;;;;27.87;13.80;;;4.80;99.90;;;;;;4912327;29;20309;-60
2021/03/23 00:45:47;;;;;;;37.77;15.00;;;4.70;99.90;;;;;;4919576;29;20673;-60
2021/03/23 00:48:16;;;;;;;37.13;14.37;;;4.70;99.90;;;;;;4911438;29;20292;-60
2021/03/23 00:50:44;;;;;;;33.53;14.03;;;4.60;99.90;;;;;;4913873;29;20198;-60
2021/03/23 00:53:15;;;;;;;29.70;14.67;;;4.50;99.90;;;;;;4910350;29;20297;-60
2021/03/23 00:55:42;;;;;;;32.27;14.43;;;4.50;99.90;;;;;;4912750;29;20220;-60
2021/03/23 00:58:10;;;;;;;30.57;14.20;;;4.40;99.90;;;;;;4912633;29;20224;-60
2021/03/23 01:00:38;;;;;;;33.93;13.83;;;4.40;99.90;;;;;;4916248;29;20292;-59
2021/03/23 01:03:05;;;;;;;34.33;14.30;;;4.30;99.90;;;;;;4907569;29;20869;-60
2021/03/23 01:05:35;;;;;;;37.37;14.00;;;4.30;99.90;;;;;;4914855;29;20200;-60
2021/03/23 01:08:03;;;;;;;40.87;14.90;;;4.30;99.90;;;;;;4910710;29;20723;-59
2021/03/23 01:10:33;;;;;;;45.60;14.93;;;4.30;99.90;;;;;;4923080;29;20209;-60
2021/03/23 01:13:01;;;;;;;40.23;14.57;;;4.30;99.90;;;;;;4915643;29;20331;-60
2021/03/23 01:15:30;;;;;;;34.87;14.47;;;4.30;99.90;;;;;;4911032;29;20683;-60
2021/03/23 01:17:59;;;;;;;32.17;14.87;;;4.30;99.90;;;;;;4909086;29;20197;-60
2021/03/23 01:20:29;;;;;;;37.33;15.00;;;4.30;99.90;;;;;;4902496;29;20212;-60
2021/03/23 01:22:56;;;;;;;34.20;14.17;;;4.30;99.90;;;;;;4921544;29;20498;-60
2021/03/23 01:25:24;;;;;;;38.10;15.03;;;4.30;99.90;;;;;;4913874;29;20672;-60
2021/03/23 01:27:52;;;;;;;35.27;14.90;;;4.30;99.90;;;;;;4914924;29;20335;-60
2021/03/23 01:30:24;;;;;;;38.20;14.97;;;4.20;99.90;;;;;;4912307;29;20202;-60
2021/03/23 01:32:52;;;;;;;36.10;14.80;;;4.20;99.90;;;;;;4913583;29;20204;-60
2021/03/23 01:35:22;;;;;;;36.80;15.27;;;4.20;99.90;;;;;;4911289;29;20681;-59
2021/03/23 01:37:50;;;;;;;36.93;15.03;;;4.20;99.90;;;;;;4912048;29;20229;-60
2021/03/23 01:40:20;;;;;;;36.13;15.30;;;4.30;99.90;;;;;;4913068;29;20268;-59
2021/03/23 01:42:50;;;;;;;39.03;14.97;;;4.30;99.90;;;;;;4911714;29;20240;-60
2021/03/23 01:45:22;;;;;;;34.07;15.87;;;4.30;99.90;;;;;;4907234;29;21360;-60
2021/03/23 01:47:51;;;;;;;38.73;15.40;;;4.30;99.90;;;;;;4920164;29;20204;-60
2021/03/23 01:50:20;;;;;;;38.73;14.63;;;4.20;99.90;;;;;;4912330;29;20229;-60
2021/03/23 01:52:52;;;;;;;33.27;15.73;;;4.20;99.90;;;;;;4906897;29;20201;-60
2021/03/23 01:55:21;;;;;;;37.10;16.63;;;4.20;99.90;;;;;;4912816;29;20675;-60
2021/03/23 01:57:51;;;;;;;37.77;16.33;;;4.20;99.90;;;;;;4909252;29;20763;-60
2021/03/23 02:00:19;;;;;;;42.83;17.37;;;4.10;99.90;;;;;;4913250;29;20284;-60
2021/03/23 02:02:47;;;;;;;39.63;17.00;;;4.10;99.90;;;;;;4907275;29;20225;-60
2021/03/23 02:05:23;;;;;;;40.57;16.10;;;4.10;99.90;;;;;;4918110;29;20182;-60
2021/03/23 02:07:51;;;;;;;41.77;17.20;;;4.00;99.90;;;;;;4902834;29;20284;-60
2021/03/23 02:10:21;;;;;;;37.53;17.27;;;4.00;99.90;;;;;;4912370;29;20203;-60
2021/03/23 02:12:49;;;;;;;33.27;17.83;;;4.00;99.90;;;;;;4912963;29;20249;-60
2021/03/23 02:15:18;;;;;;;42.07;18.53;;;3.90;99.90;;;;;;4914880;29;20197;-59
2021/03/23 02:18:06;;;;;;;42.73;17.50;;;3.90;99.90;;;;;;4914801;29;20693;-60
2021/03/23 02:20:36;;;;;;;40.93;17.90;;;3.90;99.90;;;;;;4907712;29;20828;-59
2021/03/23 02:23:10;;;;;;;49.47;18.80;;;3.80;99.90;;;;;;4911044;29;20276;-60
2021/03/23 02:25:37;;;;;;;49.20;19.17;;;3.80;99.90;;;;;;4922988;29;20255;-60
2021/03/23 02:28:05;;;;;;;44.97;19.70;;;3.70;99.90;;;;;;4911297;29;20232;-60
2021/03/23 02:30:35;;;;;;;49.03;18.77;;;3.70;99.90;;;;;;4910078;29;20654;-59
2021/03/23 02:33:04;;;;;;;45.63;19.10;;;3.70;99.90;;;;;;4915116;29;20276;-60
2021/03/23 02:35:32;;;;;;;45.47;19.70;;;3.70;99.90;;;;;;4912812;29;20201;-60
2021/03/23 02:38:00;;;;;;;49.10;18.73;;;3.60;99.90;;;;;;4930951;29;20225;-60
2021/03/23 02:40:30;;;;;;;45.07;19.57;;;3.60;99.90;;;;;;4912350;29;20671;-60
2021/03/23 02:42:57;;;;;;;44.57;18.30;;;3.60;99.90;;;;;;4917231;29;20573;-60
2021/03/23 02:45:25;;;;;;;47.50;19.53;;;3.60;99.90;;;;;;4911585;29;20288;-60
2021/03/23 02:47:53;;;;;;;55.83;21.50;;;3.60;99.90;;;;;;4907704;29;20194;-60
2021/03/23 02:50:20;;;;;;;50.27;19.87;;;3.50;99.90;;;;;;4913007;29;20288;-60
2021/03/23 02:52:48;;;;;;;51.57;21.00;;;3.60;99.90;;;;;;4908557;29;20296;-60
2021/03/23 02:55:16;;;;;;;44.10;19.90;;;3.60;99.90;;;;;;4909122;29;20277;-60
2021/03/23 02:57:46;;;;;;;42.87;19.53;;;3.50;99.90;;;;;;4908336;29;20601;-60
2021/03/23 03:00:18;;;;;;;52.70;20.13;;;3.50;99.90;;;;;;4905612;29;20197;-60
2021/03/23 03:02:52;;;;;;;46.30;20.93;;;3.50;99.90;;;;;;4908496;29;20596;-58
2021/03/23 03:05:20;;;;;;;51.33;21.70;;;3.40;99.90;;;;;;4909870;29;20194;-60
2021/03/23 03:07:47;;;;;;;53.77;22.83;;;3.40;99.90;;;;;;4914069;29;20261;-60
2021/03/23 03:10:15;;;;;;;59.10;21.67;;;3.40;99.90;;;;;;4909965;29;20205;-60
2021/03/23 03:12:43;;;;;;;52.63;21.97;;;3.30;99.90;;;;;;4908968;29;20712;-59
2021/03/23 03:15:12;;;;;;;50.17;20.40;;;3.30;99.90;;;;;;4912692;29;20779;-60
2021/03/23 03:17:39;;;;;;;51.17;21.43;;;3.30;99.90;;;;;;4910643;29;20606;-60
2021/03/23 03:20:08;;;;;;;51.17;22.30;;;3.30;99.90;;;;;;4911205;29;20193;-60
2021/03/23 03:22:36;;;;;;;58.70;22.37;;;3.30;99.90;;;;;;4915448;29;20213;-60
2021/03/23 03:25:06;;;;;;;57.03;23.20;;;3.30;99.90;;;;;;4910575;29;20317;-60
2021/03/23 03:27:33;;;;;;;57.03;22.70;;;3.30;99.90;;;;;;4912401;29;20276;-60
2021/03/23 03:30:04;;;;;;;54.23;22.60;;;3.30;99.90;;;;;;4918442;29;20201;-60
2021/03/23 03:32:31;;;;;;;60.00;22.83;;;3.30;99.90;;;;;;4911967;29;20206;-60
2021/03/23 03:34:59;;;;;;;63.60;26.23;;;3.30;99.90;;;;;;4908999;29;20212;-60
2021/03/23 03:37:26;;;;;;;53.57;23.10;;;3.30;99.90;;;;;;4920262;29;20205;-60
2021/03/23 03:39:53;;;;;;;52.83;21.57;;;3.30;99.90;;;;;;4911931;29;20301;-60
2021/03/23 03:42:25;;;;;;;48.27;22.83;;;3.30;99.90;;;;;;4916040;29;20784;-59
2021/03/23 03:44:53;;;;;;;64.33;22.87;;;3.30;99.90;;;;;;4905329;29;20190;-60
2021/03/23 03:47:21;;;;;;;47.43;22.20;;;3.20;99.90;;;;;;4916790;29;20247;-60
2021/03/23 03:49:48;;;;;;;57.87;22.83;;;3.20;99.90;;;;;;4909725;29;20197;-60
2021/03/23 03:52:16;;;;;;;52.33;22.40;;;3.20;99.90;;;;;;4911980;29;20347;-59
2021/03/23 03:54:43;;;;;;;54.20;22.13;;;3.10;99.90;;;;;;4909820;29;20768;-60
2021/03/23 03:57:11;;;;;;;60.70;23.23;;;3.20;99.90;;;;;;4909617;29;20205;-60
2021/03/23 03:59:39;;;;;;;78.67;24.27;;;3.20;99.90;;;;;;4921611;29;20201;-60
2021/03/23 04:02:06;;;;;;;52.77;21.90;;;3.10;99.90;;;;;;4915489;29;20315;-60
2021/03/23 04:04:34;;;;;;;58.43;23.87;;;3.10;99.90;;;;;;4912523;29;20827;-59
2021/03/23 04:07:02;;;;;;;54.63;21.77;;;3.10;99.90;;;;;;4910844;29;20197;-60
2021/03/23 04:09:29;;;;;;;55.33;22.00;;;3.10;99.90;;;;;;4912261;29;20225;-60
2021/03/23 04:11:57;;;;;;;51.93;22.20;;;3.10;99.90;;;;;;4916877;29;20292;-60
2021/03/23 04:14:24;;;;;;;53.10;21.97;;;3.10;99.90;;;;;;4915438;29;20201;-59
2021/03/23 04:16:52;;;;;;;51.60;21.13;;;3.10;99.90;;;;;;4918986;29;20295;-59
2021/03/23 04:19:19;;;;;;;56.97;23.00;;;3.10;99.90;;;;;;4915054;29;20193;-59
2021/03/23 04:21:48;;;;;;;54.23;21.80;;;3.10;99.90;;;;;;4912125;29;20197;-59
2021/03/23 04:24:15;;;;;;;49.83;20.47;;;3.10;99.90;;;;;;4911856;29;20743;-60
2021/03/23 04:26:43;;;;;;;53.20;21.33;;;3.10;99.90;;;;;;4913831;29;20200;-59
2021/03/23 04:29:10;;;;;;;52.37;21.00;;;3.00;99.90;;;;;;4911477;29;20233;-60
2021/03/23 04:31:42;;;;;;;53.53;21.90;;;3.00;99.90;;;;;;4914243;29;20546;-60
2021/03/23 04:34:12;;;;;;;60.87;22.07;;;3.00;99.90;;;;;;4911563;29;20198;-60
2021/03/23 04:36:46;;;;;;;61.93;20.90;;;2.90;99.90;;;;;;4905665;29;20208;-60
2021/03/23 04:39:14;;;;;;;49.90;21.27;;;2.90;99.90;;;;;;4910846;29;20305;-60
2021/03/23 04:41:41;;;;;;;55.00;21.30;;;2.90;99.90;;;;;;4914336;29;20308;-60
2021/03/23 04:44:09;;;;;;;55.97;21.23;;;2.90;99.90;;;;;;4908113;29;20228;-60
2021/03/23 04:46:36;;;;;;;57.80;22.10;;;2.90;99.90;;;;;;4910729;29;20224;-60
2021/03/23 04:49:04;;;;;;;49.87;20.57;;;2.80;99.90;;;;;;4895627;29;20783;-59
2021/03/23 04:51:31;;;;;;;53.50;21.17;;;2.90;99.90;;;;;;4920793;29;20217;-60
2021/03/23 04:54:01;;;;;;;54.30;20.67;;;2.90;99.90;;;;;;4916043;29;20284;-60
2021/03/23 04:56:31;;;;;;;62.40;20.40;;;3.00;99.90;;;;;;4911650;29;20202;-60
2021/03/23 04:58:58;;;;;;;43.80;19.17;;;3.00;99.90;;;;;;4914092;29;20216;-60
2021/03/23 05:01:26;;;;;;;50.17;20.47;;;3.00;99.90;;;;;;4911473;29;20292;-59
2021/03/23 05:03:57;;;;;;;61.83;19.70;;;2.90;99.90;;;;;;4911543;29;20224;-59
2021/03/23 05:06:25;;;;;;;45.90;20.40;;;2.90;99.90;;;;;;4911256;29;20240;-60
2021/03/23 05:08:53;;;;;;;51.33;20.90;;;2.90;99.90;;;;;;4926127;29;20292;-59
2021/03/23 05:11:24;;;;;;;53.63;21.23;;;2.80;99.90;;;;;;4911307;29;20241;-59
2021/03/23 05:13:52;;;;;;;55.13;22.10;;;2.80;99.90;;;;;;4912908;29;20583;-60
2021/03/23 05:16:20;;;;;;;53.50;21.20;;;2.80;99.90;;;;;;4913416;29;20240;-59
2021/03/23 05:18:47;;;;;;;58.47;22.03;;;2.80;99.90;;;;;;4912001;29;20231;-59
2021/03/23 05:21:14;;;;;;;57.70;21.93;;;2.80;99.90;;;;;;4914640;29;20208;-60
2021/03/23 05:23:42;;;;;;;62.53;21.97;;;2.80;99.90;;;;;;4925381;29;20225;-59
2021/03/23 05:26:10;;;;;;;56.97;22.20;;;2.80;99.90;;;;;;4910415;29;20201;-59
2021/03/23 05:28:45;;;;;;;55.80;23.60;;;2.80;99.90;;;;;;4914206;29;20324;-59
2021/03/23 05:31:14;;;;;;;59.30;23.00;;;2.90;99.90;;;;;;4911379;29;20259;-59
2021/03/23 05:33:41;;;;;;;67.53;23.27;;;2.80;99.90;;;;;;4912051;29;20208;-59
2021/03/23 05:36:10;;;;;;;63.67;22.87;;;2.80;99.90;;;;;;4912734;29;20204;-59
2021/03/23 05:38:37;;;;;;;57.43;22.77;;;2.80;99.90;;;;;;4905916;29;20292;-59
2021/03/23 05:41:07;;;;;;;57.20;22.93;;;2.90;99.90;;;;;;4914145;29;20201;-59
2021/03/23 05:43:58;;;;;;;62.93;23.23;;;2.90;99.90;;;;;;4907286;29;20209;-59
2021/03/23 05:46:33;;;;;;;52.37;21.67;;;2.90;99.90;;;;;;4902593;29;20237;-59
2021/03/23 05:49:22;;;;;;;54.87;22.57;;;2.90;99.90;;;;;;4913720;29;20223;-60
2021/03/23 05:51:57;;;;;;;52.63;22.03;;;2.90;99.90;;;;;;4905340;29;20624;-60
2021/03/23 05:54:35;;;;;;;60.63;23.30;;;2.90;99.90;;;;;;4916791;29;20225;-59
2021/03/23 05:57:10;;;;;;;57.03;22.47;;;2.90;99.90;;;;;;4914879;29;20269;-59
2021/03/23 05:59:44;;;;;;;57.47;23.33;;;2.90;99.90;;;;;;4907381;29;20252;-60
2021/03/23 06:02:23;;;;;;;57.97;23.57;;;2.90;99.90;;;;;;4903205;29;20197;-60
2021/03/23 06:04:57;;;;;;;60.63;22.43;;;2.90;99.90;;;;;;4912859;29;20193;-59
2021/03/23 06:07:25;;;;;;;56.60;23.67;;;3.00;99.90;;;;;;4908971;29;20231;-60
2021/03/23 06:09:52;;;;;;;66.13;24.33;;;3.00;99.90;;;;;;4909560;29;20659;-60
2021/03/23 06:12:31;;;;;;;77.67;25.73;;;3.10;99.90;;;;;;4923761;29;20681;-60
2021/03/23 06:15:13;;;;;;;64.40;24.50;;;3.20;99.90;;;;;;4923725;29;20292;-59
2021/03/23 06:17:48;;;;;;;61.40;22.93;;;3.30;99.90;;;;;;4908035;29;20284;-59
2021/03/23 06:20:30;;;;;;;70.07;24.63;;;3.40;99.90;;;;;;4909828;29;20276;-60
2021/03/23 06:23:31;;;;;;;58.27;22.00;;;3.40;99.90;;;;;;4914744;29;20209;-60
2021/03/23 06:26:05;;;;;;;56.13;23.03;;;3.40;99.90;;;;;;4908086;29;20232;-59
2021/03/23 06:28:53;;;;;;;57.40;23.00;;;3.50;99.90;;;;;;4923425;29;20229;-59
2021/03/23 06:31:58;;;;;;;59.63;22.67;;;3.50;99.90;;;;;;4913229;29;20224;-59
2021/03/23 06:34:29;;;;;;;60.30;23.67;;;3.60;99.90;;;;;;4911292;29;20200;-60
2021/03/23 06:36:58;;;;;;;54.53;22.70;;;3.60;99.90;;;;;;4909562;29;20237;-60
2021/03/23 06:39:29;;;;;;;62.67;23.27;;;3.60;99.90;;;;;;4911823;29;20213;-60
2021/03/23 06:42:02;;;;;;;69.77;25.13;;;3.70;99.90;;;;;;4905870;29;20575;-60
2021/03/23 06:44:32;;;;;;;56.97;21.97;;;3.80;99.90;;;;;;4905104;29;20225;-59
2021/03/23 06:47:03;;;;;;;53.63;22.10;;;3.90;99.90;;;;;;4909646;29;20550;-60
2021/03/23 06:49:34;;;;;;;53.13;22.57;;;4.00;99.90;;;;;;4914529;29;20236;-60
2021/03/23 06:52:15;;;;;;;52.83;22.67;;;4.10;99.90;;;;;;4906772;29;20225;-60
2021/03/23 06:54:43;;;;;;;53.83;21.63;;;4.10;99.90;;;;;;4906199;29;20288;-60
2021/03/23 06:57:18;;;;;;;58.63;22.83;;;4.20;99.90;;;;;;4916351;29;20260;-60
2021/03/23 06:59:54;;;;;;;47.70;20.67;;;4.30;99.90;;;;;;4920574;29;20205;-60
2021/03/23 07:02:35;;;;;;;54.53;21.80;;;4.50;99.90;;;;;;4918598;29;20370;-60
2021/03/23 07:05:23;;;;;;;58.77;21.40;;;4.70;99.90;;;;;;4923690;29;20190;-60
2021/03/23 07:07:53;;;;;;;56.37;22.13;;;5.00;99.90;;;;;;4917374;29;20201;-60
2021/03/23 07:10:23;;;;;;;47.97;21.03;;;5.30;99.90;;;;;;4919224;29;20829;-60
2021/03/23 07:12:52;;;;;;;52.50;20.13;;;5.80;99.90;;;;;;4916120;29;20221;-59
2021/03/23 07:15:22;;;;;;;46.97;20.20;;;6.00;99.90;;;;;;4931727;29;20201;-60
2021/03/23 07:17:53;;;;;;;41.60;20.00;;;6.30;99.90;;;;;;4920395;29;20233;-60
2021/03/23 07:20:40;;;;;;;43.27;19.20;;;6.50;99.90;;;;;;4916862;29;20221;-60
2021/03/23 07:23:43;;;;;;;44.17;19.73;;;6.80;99.90;;;;;;4923313;29;20309;-60
2021/03/23 07:26:19;;;;;;;41.57;18.33;;;7.00;99.90;;;;;;4924164;29;20201;-60
2021/03/23 07:28:47;;;;;;;38.50;17.90;;;7.30;99.90;;;;;;4909074;29;20229;-60
2021/03/23 07:31:20;;;;;;;42.90;19.30;;;7.60;99.90;;;;;;4911584;29;20202;-60
2021/03/23 07:34:01;;;;;;;41.37;18.13;;;7.70;99.90;;;;;;4916355;29;20210;-60
2021/03/23 07:36:38;;;;;;;40.83;17.23;;;8.00;99.90;;;;;;4912379;29;20193;-60
2021/03/23 07:39:22;;;;;;;40.00;18.33;;;8.20;99.90;;;;;;4915357;29;20198;-60
2021/03/23 07:41:53;;;;;;;44.83;18.37;;;8.50;99.90;;;;;;4914116;29;20197;-60
2021/03/23 07:44:34;;;;;;;37.73;18.10;;;8.70;99.90;;;;;;4913667;29;20213;-61
2021/03/23 07:47:11;;;;;;;35.37;17.17;;;8.80;99.90;;;;;;4916092;29;20288;-61
2021/03/23 07:49:45;;;;;;;36.80;17.33;;;9.10;99.90;;;;;;4909779;29;20260;-61
2021/03/23 07:52:23;;;;;;;40.30;18.33;;;9.10;99.90;;;;;;4911574;29;20632;-61
2021/03/23 07:54:51;;;;;;;37.67;17.27;;;9.40;99.90;;;;;;4917605;29;20667;-59
2021/03/23 07:57:45;;;;;;;35.63;16.77;;;9.80;99.90;;;;;;4911520;29;20228;-61
2021/03/23 08:00:20;;;;;;;37.73;16.67;;;10.10;99.90;;;;;;4905850;29;20812;-60
2021/03/23 08:03:00;;;;;;;31.23;16.53;;;10.30;99.90;;;;;;4908864;29;20759;-60
2021/03/23 08:05:39;;;;;;;33.13;16.70;;;10.40;99.90;;;;;;4923943;29;20228;-60
2021/03/23 08:08:21;;;;;;;35.13;16.30;;;10.70;99.90;;;;;;4915247;29;20221;-60
2021/03/23 08:10:59;;;;;;;33.97;16.30;;;10.90;99.90;;;;;;4916548;29;20758;-62
2021/03/23 08:13:40;;;;;;;30.27;15.10;;;11.50;99.90;;;;;;4916020;29;20228;-65
2021/03/23 08:16:17;;;;;;;33.07;16.10;;;11.80;99.90;;;;;;4914023;29;20212;-61
2021/03/23 08:19:16;;;;;;;27.00;15.37;;;12.10;99.90;;;;;;4906594;29;20204;-60
2021/03/23 08:22:12;;;;;;;30.70;16.10;;;12.60;99.90;;;;;;4916350;29;20917;-61
2021/03/23 08:24:55;;;;;;;30.27;16.00;;;12.90;99.90;;;;;;4917464;29;20289;-61
2021/03/23 08:27:35;;;;;;;28.43;15.57;;;13.20;99.90;;;;;;4910838;29;20256;-62
2021/03/23 08:30:16;;;;;;;27.97;15.10;;;13.70;99.90;;;;;;4921209;29;20204;-62
2021/03/23 08:32:51;;;;;;;28.73;15.43;;;13.80;99.90;;;;;;4924792;29;20208;-62
2021/03/23 08:35:31;;;;;;;29.23;14.90;;;13.70;99.90;;;;;;4927805;29;20193;-63
2021/03/23 08:38:27;;;;;;;31.23;15.60;;;14.00;99.90;;;;;;4915542;29;20209;-62
2021/03/23 08:41:04;;;;;;;30.00;15.80;;;14.30;99.90;;;;;;4915632;29;20212;-61
2021/03/23 08:43:37;;;;;;;32.47;14.13;;;14.40;99.90;;;;;;4910259;29;20221;-61
2021/03/23 08:46:10;;;;;;;31.17;15.13;;;14.70;99.90;;;;;;4914447;29;20200;-61
2021/03/23 08:48:46;;;;;;;31.30;14.80;;;14.80;99.90;;;;;;4915262;29;20204;-61
2021/03/23 08:51:19;;;;;;;31.27;15.30;;;15.10;99.90;;;;;;4914498;29;20239;-61
2021/03/23 08:53:59;;;;;;;27.07;15.37;;;15.20;99.90;;;;;;4924818;29;20226;-61
2021/03/23 08:56:56;;;;;;;25.10;14.30;;;15.10;99.90;;;;;;4915732;29;20228;-61
2021/03/23 08:59:53;;;;;;;30.57;14.30;;;15.10;99.90;;;;;;4909166;29;20202;-61
2021/03/23 09:02:48;;;;;;;25.13;14.50;;;15.70;99.90;;;;;;4910733;29;20212;-61
2021/03/23 09:05:32;;;;;;;28.07;14.37;;;15.80;99.90;;;;;;4910249;29;20285;-61
2021/03/23 09:08:35;;;;;;;27.77;15.20;;;15.90;99.90;;;;;;4922329;29;20243;-61
2021/03/23 09:11:07;;;;;;;27.53;15.10;;;15.60;99.90;;;;;;4872558;29;20207;-61
2021/03/23 09:14:14;;;;;;;28.23;14.23;;;15.50;99.90;;;;;;4869900;29;20209;-62
2021/03/23 09:17:12;;;;;;;29.63;14.37;;;16.00;99.90;;;;;;4900938;29;20213;-62
2021/03/23 09:19:56;;;;;;;24.93;13.43;;;16.10;99.90;;;;;;4910022;29;20200;-62
2021/03/23 09:22:36;;;;;;;19.63;12.07;;;16.10;99.90;;;;;;4926648;29;20687;-62
2021/03/23 09:25:23;;;;;;;20.17;11.80;;;16.10;99.90;;;;;;4913255;29;20235;-62
2021/03/23 09:28:04;;;;;;;17.93;11.93;;;16.70;99.90;;;;;;4906270;29;20268;-62
2021/03/23 09:30:52;;;;;;;28.53;13.67;;;16.80;99.90;;;;;;4912545;29;20273;-62
2021/03/23 09:33:40;;;;;;;44.17;19.17;;;17.30;99.90;;;;;;4914257;29;20189;-62
2021/03/23 09:36:48;;;;;;;32.47;15.47;;;17.40;99.90;;;;;;4909272;29;20237;-62
2021/03/23 09:39:49;;;;;;;22.20;12.33;;;17.30;99.90;;;;;;4908195;29;20311;-62
2021/03/23 09:42:38;;;;;;;20.13;11.50;;;17.60;99.90;;;;;;4908199;29;20221;-62
2021/03/23 09:45:27;;;;;;;29.77;15.10;;;17.60;99.90;;;;;;4907896;29;20202;-63
2021/03/23 09:48:03;;;;;;;23.40;13.60;;;17.90;99.90;;;;;;4913985;29;20198;-62
2021/03/23 09:50:40;;;;;;;26.60;12.77;;;18.30;99.90;;;;;;4911283;29;20195;-62
2021/03/23 09:53:13;;;;;;;21.67;11.23;;;18.10;99.90;;;;;;4909738;29;20205;-63
2021/03/23 09:55:41;;;;;;;21.53;10.37;;;17.80;99.90;;;;;;4908986;29;20644;-62
2021/03/23 09:58:23;;;;;;;17.50;10.03;;;17.90;99.90;;;;;;4908522;29;20200;-63
2021/03/23 10:00:52;;;;;;;20.03;10.60;;;18.50;99.90;;;;;;4907996;29;20198;-62
2021/03/23 10:03:35;;;;;;;17.50;10.73;;;18.70;99.90;;;;;;4908451;29;20254;-63
2021/03/23 10:06:05;;;;;;;18.03;10.43;;;18.40;99.90;;;;;;4900927;29;20230;-63
2021/03/23 10:08:36;;;;;;;19.13;11.33;;;18.70;99.90;;;;;;4918060;29;20193;-62
2021/03/23 10:11:16;;;;;;;22.17;11.70;;;19.00;99.90;;;;;;4909523;29;20206;-63
2021/03/23 10:13:53;;;;;;;22.40;12.10;;;18.80;99.90;;;;;;4909339;29;20258;-62
2021/03/23 10:16:27;;;;;;;17.17;11.60;;;19.20;99.90;;;;;;4909202;29;20254;-62
2021/03/23 10:19:08;;;;;;;19.70;11.80;;;19.20;99.90;;;;;;4905930;29;20191;-63
2021/03/23 10:21:37;;;;;;;23.70;11.83;;;19.40;99.90;;;;;;4921823;29;20699;-63
2021/03/23 10:24:14;;;;;;;22.30;12.10;;;19.70;99.90;;;;;;4907105;29;20289;-63
2021/03/23 10:26:46;;;;;;;16.90;10.67;;;20.10;99.90;;;;;;4914788;29;20201;-63
2021/03/23 10:29:17;;;;;;;16.10;11.33;;;20.10;99.90;;;;;;4908929;29;20231;-63
2021/03/23 10:31:51;;;;;;;21.63;11.27;;;19.80;99.90;;;;;;4909983;29;20212;-62
2021/03/23 10:34:23;;;;;;;19.37;11.17;;;19.40;99.90;;;;;;4927878;29;20202;-63
2021/03/23 10:36:54;;;;;;;21.83;12.37;;;19.40;99.90;;;;;;4917294;29;20207;-63
2021/03/23 10:39:49;;;;;;;18.70;12.00;;;19.20;99.90;;;;;;4914403;29;20679;-62
2021/03/23 10:42:33;;;;;;;19.80;10.77;;;19.00;99.90;;;;;;4915312;29;20818;-63
2021/03/23 10:45:22;;;;;;;15.03;9.87;;;19.20;99.90;;;;;;4915975;29;20219;-63
2021/03/23 10:48:04;;;;;;;17.27;10.17;;;18.90;99.90;;;;;;4912549;29;20215;-63
2021/03/23 10:50:34;;;;;;;17.97;11.63;;;18.90;99.90;;;;;;4918805;29;20296;-62
2021/03/23 10:53:11;;;;;;;17.50;11.93;;;18.70;99.90;;;;;;4923541;29;20212;-62
2021/03/23 10:55:42;;;;;;;21.47;11.67;;;18.20;99.90;;;;;;4913892;29;20200;-62
2021/03/23 10:58:24;;;;;;;20.57;11.80;;;18.50;99.90;;;;;;4914026;29;20213;-62
2021/03/23 11:01:11;;;;;;;19.37;11.27;;;18.50;99.90;;;;;;4918322;29;20200;-62
2021/03/23 11:03:42;;;;;;;18.47;11.90;;;18.30;99.90;;;;;;4918143;29;20205;-62
2021/03/23 11:06:28;;;;;;;22.20;12.47;;;18.60;99.90;;;;;;4909693;29;20216;-63
2021/03/23 11:08:56;;;;;;;17.57;11.87;;;19.00;99.90;;;;;;4911788;29;20265;-62
2021/03/23 11:11:24;;;;;;;20.70;12.63;;;19.40;99.90;;;;;;4913262;29;20193;-63
2021/03/23 11:13:53;;;;;;;21.60;12.13;;;19.50;99.90;;;;;;4908937;29;20285;-63
2021/03/23 11:16:22;;;;;;;23.40;13.97;;;19.50;99.90;;;;;;4913288;29;20287;-63
2021/03/23 11:18:53;;;;;;;22.20;14.87;;;19.60;99.90;;;;;;4910685;29;20202;-63
2021/03/23 11:21:20;;;;;;;23.43;13.20;;;19.70;99.90;;;;;;4908104;29;20206;-62
2021/03/23 11:23:51;;;;;;;22.73;13.53;;;19.30;99.90;;;;;;4910071;29;20746;-62
2021/03/23 11:26:22;;;;;;;21.00;12.87;;;18.50;99.90;;;;;;4915224;29;20195;-61
2021/03/23 11:28:53;;;;;;;25.67;14.90;;;18.50;99.90;;;;;;4909219;29;20238;-62
2021/03/23 11:31:23;;;;;;;21.43;12.90;;;18.10;99.90;;;;;;4916907;29;20870;-62
2021/03/23 11:33:54;;;;;;;21.97;13.20;;;17.60;99.90;;;;;;4925806;29;20252;-61
2021/03/23 11:36:22;;;;;;;21.23;12.27;;;17.10;99.90;;;;;;4910901;29;20229;-61
2021/03/23 11:38:51;;;;;;;20.33;12.17;;;17.10;99.90;;;;;;4909985;29;20616;-61
2021/03/23 11:41:22;;;;;;;23.27;12.23;;;17.40;99.90;;;;;;4911064;29;20193;-61
2021/03/23 11:43:52;;;;;;;19.13;11.20;;;17.20;99.90;;;;;;4909228;29;20570;-60
2021/03/23 11:46:25;;;;;;;21.40;11.97;;;16.80;99.90;;;;;;4910048;29;20193;-61
2021/03/23 11:49:05;;;;;;;14.97;10.90;;;16.40;99.90;;;;;;4907078;29;20283;-61
2021/03/23 11:51:34;;;;;;;19.23;11.17;;;16.20;99.90;;;;;;4907950;29;20209;-61
2021/03/23 11:54:02;;;;;;;22.10;11.13;;;16.50;99.90;;;;;;4907013;29;20776;-61
2021/03/23 11:56:30;;;;;;;19.77;10.70;;;17.10;99.90;;;;;;4912351;29;21545;-60
2021/03/23 11:58:59;;;;;;;21.97;11.47;;;17.70;99.90;;;;;;4911456;29;22782;-61
2021/03/23 12:01:29;;;;;;;16.63;10.67;;;18.40;99.90;;;;;;4909389;29;20213;-61
2021/03/23 12:03:58;;;;;;;15.50;10.40;;;18.30;99.90;;;;;;4907328;29;20201;-61
2021/03/23 12:06:34;;;;;;;20.43;10.87;;;17.50;99.90;;;;;;4910607;29;20317;-61
2021/03/23 12:09:06;;;;;;;18.07;11.23;;;16.80;99.90;;;;;;4909828;29;20204;-61
2021/03/23 12:11:43;;;;;;;17.10;11.40;;;16.00;99.90;;;;;;4914849;29;20198;-61
2021/03/23 12:14:20;;;;;;;19.53;10.87;;;15.90;99.90;;;;;;4931329;29;20234;-61
2021/03/23 12:17:00;;;;;;;17.90;10.93;;;16.80;99.90;;;;;;4914011;29;20269;-61
2021/03/23 12:19:35;;;;;;;17.20;10.07;;;17.70;99.90;;;;;;4910849;29;20209;-61
2021/03/23 12:22:03;;;;;;;21.50;10.80;;;18.50;99.90;;;;;;4909073;29;20213;-61
2021/03/23 12:24:31;;;;;;;15.23;10.10;;;18.50;99.90;;;;;;4917486;29;20313;-63
2021/03/23 12:26:59;;;;;;;19.50;10.47;;;18.90;99.90;;;;;;4916991;29;20769;-64
2021/03/23 12:29:27;;;;;;;13.07;9.47;;;19.00;99.90;;;;;;4912220;29;20233;-64
2021/03/23 12:31:54;;;;;;;15.40;10.13;;;18.70;99.90;;;;;;4912558;29;20319;-63
2021/03/23 12:34:25;;;;;;;18.17;10.53;;;18.20;99.90;;;;;;4912304;29;20787;-61
2021/03/23 12:36:54;;;;;;;14.53;10.53;;;18.30;99.90;;;;;;4915620;29;20202;-62
2021/03/23 12:39:23;;;;;;;14.50;10.73;;;18.10;99.90;;;;;;4915208;29;20259;-61
2021/03/23 12:41:50;;;;;;;18.03;10.70;;;18.30;99.90;;;;;;4911750;29;20613;-62
2021/03/23 12:44:20;;;;;;;16.50;11.00;;;18.20;99.90;;;;;;4912540;29;20625;-63
2021/03/23 12:46:47;;;;;;;14.63;11.17;;;18.10;99.90;;;;;;4915763;29;20206;-62
2021/03/23 12:49:15;;;;;;;21.27;11.73;;;17.70;99.90;;;;;;4911577;29;20202;-62
2021/03/23 12:51:47;;;;;;;19.73;12.03;;;17.20;99.90;;;;;;4908997;29;20261;-62
2021/03/23 12:54:21;;;;;;;21.90;11.80;;;17.00;99.90;;;;;;4914360;29;20189;-64
2021/03/23 12:56:48;;;;;;;17.50;11.17;;;17.40;99.90;;;;;;4909461;29;20209;-62
2021/03/23 12:59:20;;;;;;;15.67;11.10;;;17.70;99.90;;;;;;4909262;29;20571;-63
2021/03/23 13:01:51;;;;;;;16.70;11.80;;;17.90;99.90;;;;;;4910562;29;20197;-62
2021/03/23 13:04:21;;;;;;;19.37;12.03;;;18.00;99.90;;;;;;4909758;29;20224;-63